sensor_id;sensor_type;location;lat;lon;timestamp;P1;durP1;ratioP1;P2;durP2;ratioP2
38611;SDS011;24368;52.156;20.788;2023-02-20T00:04:41;3.90;;;1.90;;
38611;SDS011;24368;52.156;20.788;2023-02-20T00:09:43;5.90;;;2.80;;
38611;SDS011;24368;52.156;20.788;2023-02-20T00:14:45;5.80;;;2.20;;
38611;SDS011;24368;52.156;20.788;2023-02-20T00:19:46;5.50;;;2.60;;
38611;SDS011;24368;52.156;20.788;2023-02-20T00:24:48;4.40;;;2.50;;
38611;SDS011;24368;52.156;20.788;2023-02-20T00:29:50;5.40;;;2.80;;
38611;SDS011;24368;52.156;20.788;2023-02-20T00:34:52;7.10;;;1.80;;
38611;SDS011;24368;52.156;20.788;2023-02-20T00:39:54;5.90;;;2.10;;
38611;SDS011;24368;52.156;20.788;2023-02-20T00:44:56;7.10;;;2.90;;
38611;SDS011;24368;52.156;20.788;2023-02-20T00:49:57;6.90;;;3.40;;
38611;SDS011;24368;52.156;20.788;2023-02-20T00:55:00;7.10;;;3.70;;
38611;SDS011;24368;52.156;20.788;2023-02-20T01:00:02;7.30;;;2.90;;
38611;SDS011;24368;52.156;20.788;2023-02-20T01:05:05;8.20;;;3.60;;
38611;SDS011;24368;52.156;20.788;2023-02-20T01:10:09;5.60;;;3.00;;
38611;SDS011;24368;52.156;20.788;2023-02-20T01:15:12;5.60;;;2.90;;
38611;SDS011;24368;52.156;20.788;2023-02-20T01:20:16;5.00;;;2.50;;
38611;SDS011;24368;52.156;20.788;2023-02-20T01:25:18;5.20;;;3.00;;
38611;SDS011;24368;52.156;20.788;2023-02-20T01:30:23;5.40;;;2.40;;
38611;SDS011;24368;52.156;20.788;2023-02-20T01:35:24;3.40;;;2.10;;
38611;SDS011;24368;52.156;20.788;2023-02-20T01:40:32;6.20;;;2.70;;
38611;SDS011;24368;52.156;20.788;2023-02-20T01:45:36;6.00;;;3.10;;
38611;SDS011;24368;52.156;20.788;2023-02-20T01:50:40;7.30;;;2.30;;
38611;SDS011;24368;52.156;20.788;2023-02-20T01:55:45;4.60;;;2.80;;
38611;SDS011;24368;52.156;20.788;2023-02-20T02:00:51;4.60;;;2.70;;
38611;SDS011;24368;52.156;20.788;2023-02-20T02:05:57;3.40;;;1.90;;
38611;SDS011;24368;52.156;20.788;2023-02-20T02:11:02;5.40;;;2.20;;
38611;SDS011;24368;52.156;20.788;2023-02-20T02:48:16;7.00;;;3.80;;
38611;SDS011;24368;52.156;20.788;2023-02-20T02:53:34;3.90;;;2.60;;
38611;SDS011;24368;52.156;20.788;2023-02-20T02:58:36;4.00;;;1.90;;
38611;SDS011;24368;52.156;20.788;2023-02-20T03:03:39;2.60;;;2.00;;
38611;SDS011;24368;52.156;20.788;2023-02-20T03:19:46;8.80;;;2.50;;
38611;SDS011;24368;52.156;20.788;2023-02-20T03:24:55;3.70;;;2.50;;
38611;SDS011;24368;52.156;20.788;2023-02-20T03:29:59;5.90;;;2.60;;
38611;SDS011;24368;52.156;20.788;2023-02-20T03:35:02;4.00;;;2.00;;
38611;SDS011;24368;52.156;20.788;2023-02-20T03:40:25;5.20;;;3.10;;
38611;SDS011;24368;52.156;20.788;2023-02-20T03:45:47;7.00;;;2.40;;
38611;SDS011;24368;52.156;20.788;2023-02-20T03:50:50;4.40;;;2.00;;
38611;SDS011;24368;52.156;20.788;2023-02-20T03:56:12;5.60;;;2.30;;
38611;SDS011;24368;52.156;20.788;2023-02-20T04:01:20;3.90;;;1.60;;
38611;SDS011;24368;52.156;20.788;2023-02-20T04:06:27;6.00;;;2.10;;
38611;SDS011;24368;52.156;20.788;2023-02-20T04:11:39;7.90;;;2.60;;
38611;SDS011;24368;52.156;20.788;2023-02-20T04:16:49;4.10;;;2.30;;
38611;SDS011;24368;52.156;20.788;2023-02-20T04:21:56;3.20;;;2.10;;
38611;SDS011;24368;52.156;20.788;2023-02-20T04:27:02;3.90;;;1.30;;
38611;SDS011;24368;52.156;20.788;2023-02-20T04:32:04;3.10;;;1.60;;
38611;SDS011;24368;52.156;20.788;2023-02-20T04:37:07;5.10;;;2.30;;
38611;SDS011;24368;52.156;20.788;2023-02-20T04:42:10;6.80;;;2.00;;
38611;SDS011;24368;52.156;20.788;2023-02-20T04:47:13;4.00;;;2.20;;
38611;SDS011;24368;52.156;20.788;2023-02-20T04:52:17;5.40;;;2.20;;
38611;SDS011;24368;52.156;20.788;2023-02-20T04:57:19;6.80;;;2.20;;
38611;SDS011;24368;52.156;20.788;2023-02-20T05:02:20;4.00;;;2.00;;
38611;SDS011;24368;52.156;20.788;2023-02-20T05:07:22;3.60;;;2.10;;
38611;SDS011;24368;52.156;20.788;2023-02-20T05:12:24;5.30;;;2.10;;
38611;SDS011;24368;52.156;20.788;2023-02-20T05:17:26;5.20;;;1.90;;
38611;SDS011;24368;52.156;20.788;2023-02-20T05:22:28;5.40;;;2.10;;
38611;SDS011;24368;52.156;20.788;2023-02-20T05:27:29;4.60;;;2.20;;
38611;SDS011;24368;52.156;20.788;2023-02-20T05:32:31;3.80;;;1.70;;
38611;SDS011;24368;52.156;20.788;2023-02-20T05:37:33;3.80;;;2.20;;
38611;SDS011;24368;52.156;20.788;2023-02-20T05:42:35;3.90;;;2.10;;
38611;SDS011;24368;52.156;20.788;2023-02-20T05:47:37;7.60;;;2.90;;
38611;SDS011;24368;52.156;20.788;2023-02-20T05:52:39;3.80;;;1.60;;
38611;SDS011;24368;52.156;20.788;2023-02-20T05:57:40;3.50;;;2.10;;
38611;SDS011;24368;52.156;20.788;2023-02-20T06:02:42;4.30;;;2.50;;
38611;SDS011;24368;52.156;20.788;2023-02-20T06:07:45;5.50;;;2.30;;
38611;SDS011;24368;52.156;20.788;2023-02-20T06:12:47;2.40;;;2.00;;
38611;SDS011;24368;52.156;20.788;2023-02-20T06:17:48;4.40;;;2.20;;
38611;SDS011;24368;52.156;20.788;2023-02-20T06:22:50;5.00;;;2.20;;
38611;SDS011;24368;52.156;20.788;2023-02-20T06:27:52;4.80;;;2.50;;
38611;SDS011;24368;52.156;20.788;2023-02-20T06:32:54;7.40;;;3.60;;
38611;SDS011;24368;52.156;20.788;2023-02-20T06:37:55;6.60;;;4.00;;
38611;SDS011;24368;52.156;20.788;2023-02-20T06:42:57;4.30;;;2.30;;
38611;SDS011;24368;52.156;20.788;2023-02-20T06:47:59;4.70;;;2.30;;
38611;SDS011;24368;52.156;20.788;2023-02-20T06:53:01;6.90;;;2.30;;
38611;SDS011;24368;52.156;20.788;2023-02-20T06:58:02;3.40;;;1.70;;
38611;SDS011;24368;52.156;20.788;2023-02-20T07:03:04;5.50;;;2.20;;
38611;SDS011;24368;52.156;20.788;2023-02-20T07:08:06;5.30;;;2.10;;
38611;SDS011;24368;52.156;20.788;2023-02-20T07:13:08;5.80;;;2.30;;
38611;SDS011;24368;52.156;20.788;2023-02-20T07:18:10;4.00;;;1.90;;
38611;SDS011;24368;52.156;20.788;2023-02-20T07:23:12;5.40;;;2.30;;
38611;SDS011;24368;52.156;20.788;2023-02-20T07:28:14;4.80;;;2.70;;
38611;SDS011;24368;52.156;20.788;2023-02-20T07:33:19;6.90;;;2.60;;
38611;SDS011;24368;52.156;20.788;2023-02-20T07:38:21;5.00;;;2.50;;
38611;SDS011;24368;52.156;20.788;2023-02-20T07:43:23;3.70;;;2.30;;
38611;SDS011;24368;52.156;20.788;2023-02-20T07:48:24;8.40;;;3.10;;
38611;SDS011;24368;52.156;20.788;2023-02-20T07:53:26;4.00;;;2.80;;
38611;SDS011;24368;52.156;20.788;2023-02-20T07:58:28;5.10;;;2.80;;
38611;SDS011;24368;52.156;20.788;2023-02-20T08:03:30;6.30;;;3.10;;
38611;SDS011;24368;52.156;20.788;2023-02-20T08:08:32;4.60;;;2.60;;
38611;SDS011;24368;52.156;20.788;2023-02-20T08:13:34;5.90;;;3.00;;
38611;SDS011;24368;52.156;20.788;2023-02-20T08:18:35;5.50;;;3.30;;
38611;SDS011;24368;52.156;20.788;2023-02-20T08:23:37;4.40;;;2.50;;
38611;SDS011;24368;52.156;20.788;2023-02-20T08:28:39;3.80;;;2.00;;
38611;SDS011;24368;52.156;20.788;2023-02-20T08:33:41;10.30;;;2.40;;
38611;SDS011;24368;52.156;20.788;2023-02-20T08:38:43;5.80;;;2.80;;
38611;SDS011;24368;52.156;20.788;2023-02-20T08:43:45;3.40;;;2.70;;
38611;SDS011;24368;52.156;20.788;2023-02-20T08:48:47;6.20;;;5.20;;
38611;SDS011;24368;52.156;20.788;2023-02-20T08:53:49;4.00;;;2.60;;
38611;SDS011;24368;52.156;20.788;2023-02-20T08:58:51;5.60;;;3.20;;
38611;SDS011;24368;52.156;20.788;2023-02-20T09:03:54;4.20;;;2.40;;
38611;SDS011;24368;52.156;20.788;2023-02-20T09:08:56;6.80;;;4.00;;
38611;SDS011;24368;52.156;20.788;2023-02-20T09:13:58;5.50;;;4.90;;
38611;SDS011;24368;52.156;20.788;2023-02-20T09:18:59;5.90;;;5.00;;
38611;SDS011;24368;52.156;20.788;2023-02-20T09:24:01;7.80;;;4.70;;
38611;SDS011;24368;52.156;20.788;2023-02-20T09:29:06;10.00;;;4.90;;
38611;SDS011;24368;52.156;20.788;2023-02-20T09:34:08;6.60;;;5.80;;
38611;SDS011;24368;52.156;20.788;2023-02-20T09:39:10;10.10;;;5.50;;
38611;SDS011;24368;52.156;20.788;2023-02-20T09:44:26;8.90;;;5.00;;
38611;SDS011;24368;52.156;20.788;2023-02-20T09:49:40;6.30;;;4.90;;
38611;SDS011;24368;52.156;20.788;2023-02-20T09:54:42;6.60;;;5.00;;
38611;SDS011;24368;52.156;20.788;2023-02-20T09:59:50;7.10;;;5.60;;
38611;SDS011;24368;52.156;20.788;2023-02-20T10:05:03;6.60;;;4.70;;
38611;SDS011;24368;52.156;20.788;2023-02-20T10:10:21;10.00;;;5.70;;
38611;SDS011;24368;52.156;20.788;2023-02-20T10:21:25;8.80;;;5.60;;
38611;SDS011;24368;52.156;20.788;2023-02-20T10:26:41;7.10;;;6.00;;
38611;SDS011;24368;52.156;20.788;2023-02-20T10:31:52;9.30;;;6.50;;
38611;SDS011;24368;52.156;20.788;2023-02-20T10:42:28;7.70;;;5.70;;
38611;SDS011;24368;52.156;20.788;2023-02-20T10:47:47;7.20;;;5.60;;
38611;SDS011;24368;52.156;20.788;2023-02-20T10:53:00;7.60;;;5.60;;
38611;SDS011;24368;52.156;20.788;2023-02-20T10:58:14;7.10;;;5.60;;
38611;SDS011;24368;52.156;20.788;2023-02-20T11:03:19;7.10;;;5.10;;
38611;SDS011;24368;52.156;20.788;2023-02-20T11:08:26;9.10;;;6.20;;
38611;SDS011;24368;52.156;20.788;2023-02-20T11:13:28;9.00;;;6.90;;
38611;SDS011;24368;52.156;20.788;2023-02-20T11:18:37;6.10;;;5.50;;
38611;SDS011;24368;52.156;20.788;2023-02-20T11:23:41;7.80;;;6.70;;
38611;SDS011;24368;52.156;20.788;2023-02-20T11:28:44;6.70;;;4.60;;
38611;SDS011;24368;52.156;20.788;2023-02-20T11:33:54;7.70;;;6.60;;
38611;SDS011;24368;52.156;20.788;2023-02-20T11:39:00;7.50;;;6.70;;
38611;SDS011;24368;52.156;20.788;2023-02-20T11:49:21;6.40;;;5.00;;
38611;SDS011;24368;52.156;20.788;2023-02-20T11:54:26;6.70;;;5.60;;
38611;SDS011;24368;52.156;20.788;2023-02-20T11:59:34;6.30;;;5.70;;
38611;SDS011;24368;52.156;20.788;2023-02-20T12:15:41;6.40;;;5.80;;
38611;SDS011;24368;52.156;20.788;2023-02-20T12:20:51;7.60;;;6.70;;
38611;SDS011;24368;52.156;20.788;2023-02-20T12:31:34;8.50;;;7.60;;
38611;SDS011;24368;52.156;20.788;2023-02-20T12:37:10;7.40;;;6.60;;
38611;SDS011;24368;52.156;20.788;2023-02-20T12:47:43;12.10;;;8.40;;
38611;SDS011;24368;52.156;20.788;2023-02-20T13:09:19;9.20;;;7.10;;
38611;SDS011;24368;52.156;20.788;2023-02-20T13:14:30;8.70;;;7.80;;
38611;SDS011;24368;52.156;20.788;2023-02-20T13:19:42;8.00;;;7.20;;
38611;SDS011;24368;52.156;20.788;2023-02-20T13:25:11;9.40;;;7.80;;
38611;SDS011;24368;52.156;20.788;2023-02-20T13:30:32;10.90;;;8.70;;
38611;SDS011;24368;52.156;20.788;2023-02-20T13:45:45;8.80;;;6.60;;
38611;SDS011;24368;52.156;20.788;2023-02-20T13:50:48;7.60;;;6.30;;
38611;SDS011;24368;52.156;20.788;2023-02-20T13:55:50;8.60;;;6.10;;
38611;SDS011;24368;52.156;20.788;2023-02-20T14:00:52;7.90;;;6.30;;
38611;SDS011;24368;52.156;20.788;2023-02-20T14:06:06;6.60;;;5.40;;
38611;SDS011;24368;52.156;20.788;2023-02-20T14:11:13;4.90;;;4.30;;
38611;SDS011;24368;52.156;20.788;2023-02-20T14:21:35;7.20;;;5.70;;
38611;SDS011;24368;52.156;20.788;2023-02-20T14:26:39;7.00;;;5.50;;
38611;SDS011;24368;52.156;20.788;2023-02-20T14:31:40;7.70;;;5.40;;
38611;SDS011;24368;52.156;20.788;2023-02-20T14:42:20;8.70;;;6.20;;
38611;SDS011;24368;52.156;20.788;2023-02-20T14:47:23;7.40;;;5.60;;
38611;SDS011;24368;52.156;20.788;2023-02-20T14:52:25;5.80;;;5.10;;
38611;SDS011;24368;52.156;20.788;2023-02-20T14:57:28;7.10;;;4.60;;
38611;SDS011;24368;52.156;20.788;2023-02-20T15:02:31;3.60;;;3.10;;
38611;SDS011;24368;52.156;20.788;2023-02-20T15:07:35;6.90;;;5.40;;
38611;SDS011;24368;52.156;20.788;2023-02-20T15:12:39;6.70;;;5.50;;
38611;SDS011;24368;52.156;20.788;2023-02-20T15:17:42;4.70;;;4.20;;
38611;SDS011;24368;52.156;20.788;2023-02-20T15:22:44;5.60;;;5.00;;
38611;SDS011;24368;52.156;20.788;2023-02-20T15:33:07;5.40;;;4.80;;
38611;SDS011;24368;52.156;20.788;2023-02-20T15:38:11;6.00;;;4.70;;
38611;SDS011;24368;52.156;20.788;2023-02-20T15:43:14;5.10;;;4.60;;
38611;SDS011;24368;52.156;20.788;2023-02-20T15:48:17;4.20;;;3.80;;
38611;SDS011;24368;52.156;20.788;2023-02-20T15:53:21;7.00;;;5.50;;
38611;SDS011;24368;52.156;20.788;2023-02-20T15:58:32;7.00;;;4.60;;
38611;SDS011;24368;52.156;20.788;2023-02-20T16:03:37;7.20;;;5.50;;
38611;SDS011;24368;52.156;20.788;2023-02-20T16:08:39;5.20;;;4.60;;
38611;SDS011;24368;52.156;20.788;2023-02-20T16:13:42;4.50;;;3.20;;
38611;SDS011;24368;52.156;20.788;2023-02-20T16:18:47;3.80;;;3.30;;
38611;SDS011;24368;52.156;20.788;2023-02-20T16:23:51;4.40;;;3.70;;
38611;SDS011;24368;52.156;20.788;2023-02-20T16:28:57;6.50;;;4.40;;
38611;SDS011;24368;52.156;20.788;2023-02-20T16:34:01;4.60;;;4.20;;
38611;SDS011;24368;52.156;20.788;2023-02-20T16:39:03;3.40;;;3.00;;
38611;SDS011;24368;52.156;20.788;2023-02-20T16:49:19;4.00;;;3.60;;
38611;SDS011;24368;52.156;20.788;2023-02-20T16:54:21;3.60;;;3.30;;
38611;SDS011;24368;52.156;20.788;2023-02-20T16:59:22;4.00;;;3.10;;
38611;SDS011;24368;52.156;20.788;2023-02-20T17:04:24;4.40;;;3.60;;
38611;SDS011;24368;52.156;20.788;2023-02-20T17:09:26;5.20;;;4.40;;
38611;SDS011;24368;52.156;20.788;2023-02-20T17:14:28;3.40;;;3.10;;
38611;SDS011;24368;52.156;20.788;2023-02-20T17:19:29;3.80;;;3.40;;
38611;SDS011;24368;52.156;20.788;2023-02-20T17:24:32;5.50;;;4.40;;
38611;SDS011;24368;52.156;20.788;2023-02-20T17:29:35;3.90;;;3.50;;
38611;SDS011;24368;52.156;20.788;2023-02-20T17:34:37;3.50;;;3.10;;
38611;SDS011;24368;52.156;20.788;2023-02-20T17:39:39;3.70;;;3.40;;
38611;SDS011;24368;52.156;20.788;2023-02-20T17:44:40;4.60;;;3.90;;
38611;SDS011;24368;52.156;20.788;2023-02-20T17:49:42;5.00;;;4.30;;
38611;SDS011;24368;52.156;20.788;2023-02-20T17:54:45;4.30;;;3.30;;
38611;SDS011;24368;52.156;20.788;2023-02-20T17:59:48;5.70;;;4.90;;
38611;SDS011;24368;52.156;20.788;2023-02-20T18:04:50;5.70;;;4.40;;
38611;SDS011;24368;52.156;20.788;2023-02-20T18:09:52;4.90;;;4.30;;
38611;SDS011;24368;52.156;20.788;2023-02-20T18:14:56;4.60;;;4.00;;
38611;SDS011;24368;52.156;20.788;2023-02-20T18:19:57;5.10;;;3.90;;
38611;SDS011;24368;52.156;20.788;2023-02-20T18:25:00;5.40;;;4.00;;
38611;SDS011;24368;52.156;20.788;2023-02-20T18:30:02;7.70;;;4.80;;
38611;SDS011;24368;52.156;20.788;2023-02-20T18:35:04;5.80;;;4.90;;
38611;SDS011;24368;52.156;20.788;2023-02-20T18:40:09;5.20;;;4.50;;
38611;SDS011;24368;52.156;20.788;2023-02-20T18:45:11;4.20;;;3.80;;
38611;SDS011;24368;52.156;20.788;2023-02-20T18:50:14;4.90;;;4.50;;
38611;SDS011;24368;52.156;20.788;2023-02-20T18:55:16;4.70;;;3.90;;
38611;SDS011;24368;52.156;20.788;2023-02-20T19:00:20;5.30;;;4.20;;
38611;SDS011;24368;52.156;20.788;2023-02-20T19:05:24;5.60;;;4.50;;
38611;SDS011;24368;52.156;20.788;2023-02-20T19:10:26;4.30;;;3.90;;
38611;SDS011;24368;52.156;20.788;2023-02-20T19:15:28;5.90;;;5.10;;
38611;SDS011;24368;52.156;20.788;2023-02-20T19:20:30;5.50;;;5.00;;
38611;SDS011;24368;52.156;20.788;2023-02-20T19:25:33;9.20;;;5.00;;
38611;SDS011;24368;52.156;20.788;2023-02-20T19:30:34;7.40;;;5.00;;
38611;SDS011;24368;52.156;20.788;2023-02-20T19:35:36;5.70;;;5.10;;
38611;SDS011;24368;52.156;20.788;2023-02-20T19:40:38;4.40;;;4.00;;
38611;SDS011;24368;52.156;20.788;2023-02-20T19:45:40;6.00;;;4.30;;
38611;SDS011;24368;52.156;20.788;2023-02-20T19:50:42;5.20;;;4.40;;
38611;SDS011;24368;52.156;20.788;2023-02-20T19:55:44;5.20;;;4.40;;
38611;SDS011;24368;52.156;20.788;2023-02-20T20:00:45;5.50;;;4.90;;
38611;SDS011;24368;52.156;20.788;2023-02-20T20:05:47;6.50;;;5.40;;
38611;SDS011;24368;52.156;20.788;2023-02-20T20:10:49;5.70;;;5.20;;
38611;SDS011;24368;52.156;20.788;2023-02-20T20:15:51;7.70;;;6.30;;
38611;SDS011;24368;52.156;20.788;2023-02-20T20:20:53;5.70;;;5.10;;
38611;SDS011;24368;52.156;20.788;2023-02-20T20:25:54;6.60;;;5.80;;
38611;SDS011;24368;52.156;20.788;2023-02-20T20:30:56;6.00;;;5.40;;
38611;SDS011;24368;52.156;20.788;2023-02-20T20:35:58;6.60;;;5.80;;
38611;SDS011;24368;52.156;20.788;2023-02-20T20:41:00;5.60;;;5.10;;
38611;SDS011;24368;52.156;20.788;2023-02-20T20:46:02;7.00;;;6.30;;
38611;SDS011;24368;52.156;20.788;2023-02-20T20:51:04;5.60;;;4.50;;
38611;SDS011;24368;52.156;20.788;2023-02-20T20:56:06;5.70;;;5.10;;
38611;SDS011;24368;52.156;20.788;2023-02-20T21:01:09;4.60;;;4.20;;
38611;SDS011;24368;52.156;20.788;2023-02-20T21:06:11;4.40;;;4.00;;
38611;SDS011;24368;52.156;20.788;2023-02-20T21:11:13;6.20;;;5.60;;
38611;SDS011;24368;52.156;20.788;2023-02-20T21:16:15;6.70;;;5.90;;
38611;SDS011;24368;52.156;20.788;2023-02-20T21:21:23;7.20;;;6.50;;
38611;SDS011;24368;52.156;20.788;2023-02-20T21:26:25;6.00;;;5.10;;
38611;SDS011;24368;52.156;20.788;2023-02-20T21:31:27;6.10;;;5.40;;
38611;SDS011;24368;52.156;20.788;2023-02-20T21:36:29;3.70;;;3.40;;
38611;SDS011;24368;52.156;20.788;2023-02-20T21:41:31;3.50;;;3.20;;
38611;SDS011;24368;52.156;20.788;2023-02-20T21:46:56;5.40;;;4.80;;
38611;SDS011;24368;52.156;20.788;2023-02-20T21:52:02;6.50;;;5.90;;
38611;SDS011;24368;52.156;20.788;2023-02-20T21:57:04;6.20;;;5.60;;
38611;SDS011;24368;52.156;20.788;2023-02-20T22:02:06;6.50;;;5.80;;
38611;SDS011;24368;52.156;20.788;2023-02-20T22:07:15;7.60;;;5.80;;
38611;SDS011;24368;52.156;20.788;2023-02-20T22:12:36;5.30;;;4.30;;
38611;SDS011;24368;52.156;20.788;2023-02-20T22:17:56;5.30;;;4.50;;
38611;SDS011;24368;52.156;20.788;2023-02-20T22:23:17;4.50;;;4.10;;
38611;SDS011;24368;52.156;20.788;2023-02-20T22:28:37;4.60;;;3.60;;
38611;SDS011;24368;52.156;20.788;2023-02-20T22:33:58;3.00;;;2.60;;
38611;SDS011;24368;52.156;20.788;2023-02-20T22:39:18;1.90;;;1.50;;
38611;SDS011;24368;52.156;20.788;2023-02-20T22:44:39;3.00;;;2.30;;
38611;SDS011;24368;52.156;20.788;2023-02-20T22:49:59;3.50;;;3.20;;
38611;SDS011;24368;52.156;20.788;2023-02-20T22:55:20;3.40;;;3.10;;
38611;SDS011;24368;52.156;20.788;2023-02-20T23:00:41;3.60;;;2.80;;
38611;SDS011;24368;52.156;20.788;2023-02-20T23:06:02;3.90;;;3.50;;
38611;SDS011;24368;52.156;20.788;2023-02-20T23:11:23;4.30;;;3.40;;
38611;SDS011;24368;52.156;20.788;2023-02-20T23:16:43;4.20;;;3.40;;
38611;SDS011;24368;52.156;20.788;2023-02-20T23:22:04;3.70;;;2.70;;
38611;SDS011;24368;52.156;20.788;2023-02-20T23:27:25;2.80;;;2.40;;
38611;SDS011;24368;52.156;20.788;2023-02-20T23:32:46;1.60;;;1.10;;
38611;SDS011;24368;52.156;20.788;2023-02-20T23:38:07;1.40;;;1.30;;
38611;SDS011;24368;52.156;20.788;2023-02-20T23:43:28;1.30;;;0.90;;
38611;SDS011;24368;52.156;20.788;2023-02-20T23:48:49;1.40;;;1.30;;
38611;SDS011;24368;52.156;20.788;2023-02-20T23:54:10;1.40;;;1.10;;
38611;SDS011;24368;52.156;20.788;2023-02-20T23:59:30;2.20;;;1.00;;
